createdAt,value
2022-08-20T00:02:14.012Z,26.92
2022-08-20T00:04:42.135Z,26.91
2022-08-20T00:07:10.000Z,26.87
2022-08-20T00:09:38.023Z,26.87
2022-08-20T00:12:07.874Z,26.86
2022-08-20T00:14:35.901Z,26.86
2022-08-20T00:17:03.927Z,26.84
2022-08-20T00:19:31.876Z,26.84
2022-08-20T00:21:59.867Z,26.81
2022-08-20T00:24:27.687Z,26.79
2022-08-20T00:26:55.711Z,26.73
2022-08-20T00:29:24.912Z,26.75
2022-08-20T00:31:52.841Z,26.74
2022-08-20T00:34:20.725Z,26.71
2022-08-20T00:36:50.302Z,26.70
2022-08-20T00:39:18.126Z,26.69
2022-08-20T00:41:46.068Z,26.69
2022-08-20T00:44:15.231Z,26.70
2022-08-20T00:46:50.635Z,26.68
2022-08-20T00:49:22.086Z,26.69
2022-08-20T00:51:52.965Z,26.69
2022-08-20T00:54:22.032Z,26.67
2022-08-20T00:56:52.066Z,26.66
2022-08-20T00:59:21.681Z,26.65
2022-08-20T01:01:55.720Z,26.65
2022-08-20T01:04:26.405Z,26.44
2022-08-20T01:06:54.351Z,26.62
2022-08-20T01:09:49.784Z,26.58
2022-08-20T01:12:10.423Z,26.61
2022-08-20T01:14:43.961Z,26.36
2022-08-20T01:17:16.157Z,26.58
2022-08-20T01:19:45.721Z,26.48
2022-08-20T01:22:28.002Z,26.52
2022-08-20T01:24:58.733Z,26.19
2022-08-20T01:27:28.394Z,26.46
2022-08-20T01:29:58.809Z,26.35
2022-08-20T01:32:26.648Z,26.33
2022-08-20T01:34:54.613Z,26.35
2022-08-20T01:37:24.572Z,26.36
2022-08-20T01:39:59.539Z,26.34
2022-08-20T01:42:30.301Z,26.32
2022-08-20T01:44:58.145Z,26.30
2022-08-20T01:47:31.216Z,26.28
2022-08-20T01:50:07.500Z,26.25
2022-08-20T01:52:40.400Z,26.23
2022-08-20T01:55:08.578Z,26.22
2022-08-20T01:57:40.074Z,26.12
2022-08-20T02:00:19.027Z,26.19
2022-08-20T02:02:47.981Z,26.17
2022-08-20T02:05:15.992Z,26.14
2022-08-20T02:07:43.894Z,26.06
2022-08-20T02:10:12.876Z,26.07
2022-08-20T02:12:42.318Z,26.05
2022-08-20T02:15:11.641Z,25.99
2022-08-20T02:17:40.371Z,25.65
2022-08-20T02:20:10.350Z,25.91
2022-08-20T02:22:40.801Z,25.67
2022-08-20T02:25:17.304Z,25.85
2022-08-20T02:27:47.002Z,25.83
2022-08-20T02:30:19.341Z,25.82
2022-08-20T02:32:56.315Z,25.80
2022-08-20T02:35:24.622Z,25.79
2022-08-20T02:37:52.572Z,25.78
2022-08-20T02:40:27.063Z,25.76
2022-08-20T02:43:00.432Z,25.71
2022-08-20T02:45:28.463Z,25.70
2022-08-20T02:47:57.634Z,25.67
2022-08-20T02:50:26.162Z,25.67
2022-08-20T02:52:54.160Z,25.67
2022-08-20T02:55:27.490Z,25.68
2022-08-20T02:57:58.553Z,25.61
2022-08-20T03:00:38.138Z,25.59
2022-08-20T03:03:06.884Z,25.69
2022-08-20T03:05:35.410Z,25.67
2022-08-20T03:08:04.590Z,25.65
2022-08-20T03:10:33.597Z,25.61
2022-08-20T03:13:02.632Z,25.62
2022-08-20T03:15:32.149Z,25.60
2022-08-20T03:18:00.976Z,25.60
2022-08-20T03:20:29.238Z,25.58
2022-08-20T03:22:57.413Z,25.56
2022-08-20T03:25:25.209Z,25.56
2022-08-20T03:27:54.212Z,25.56
2022-08-20T03:30:23.714Z,25.55
2022-08-20T03:32:53.079Z,25.54
2022-08-20T03:35:22.138Z,25.40
2022-08-20T03:37:50.233Z,25.53
2022-08-20T03:40:19.429Z,25.53
2022-08-20T03:42:47.413Z,25.52
2022-08-20T03:45:19.895Z,25.52
2022-08-20T03:47:48.617Z,25.38
2022-08-20T03:50:23.138Z,25.50
2022-08-20T03:52:51.648Z,25.49
2022-08-20T03:55:19.862Z,25.51
2022-08-20T03:57:48.484Z,25.49
2022-08-20T04:00:19.321Z,24.89
2022-08-20T04:02:47.390Z,25.02
2022-08-20T04:05:15.498Z,24.36
2022-08-20T04:07:45.049Z,24.30
2022-08-20T04:10:13.977Z,24.68
2022-08-20T04:12:51.358Z,24.67
2022-08-20T04:15:21.323Z,24.87
2022-08-20T04:17:50.157Z,25.50
2022-08-20T04:20:23.063Z,24.41
2022-08-20T04:22:59.311Z,24.99
2022-08-20T04:25:29.679Z,25.54
2022-08-20T04:27:57.979Z,23.66
2022-08-20T04:30:26.304Z,25.19
2022-08-20T04:32:54.462Z,24.94
2022-08-20T04:35:24.683Z,25.27
2022-08-20T04:38:00.588Z,25.48
2022-08-20T04:40:46.231Z,25.14
2022-08-20T04:43:14.140Z,24.37
2022-08-20T04:45:42.038Z,25.19
2022-08-20T04:48:14.775Z,24.84
2022-08-20T04:50:44.382Z,24.72
2022-08-20T04:53:15.142Z,24.57
2022-08-20T04:55:43.448Z,24.17
2022-08-20T04:58:13.031Z,25.55
2022-08-20T05:00:41.050Z,25.59
2022-08-20T05:03:09.191Z,25.47
2022-08-20T05:05:37.192Z,25.64
2022-08-20T05:08:05.616Z,25.26
2022-08-20T05:10:46.199Z,22.32
2022-08-20T05:13:23.081Z,25.40
2022-08-20T05:15:54.826Z,24.23
2022-08-20T05:18:23.707Z,25.08
2022-08-20T05:20:51.686Z,25.69
2022-08-20T05:23:20.154Z,24.46
2022-08-20T05:25:51.508Z,24.43
2022-08-20T05:28:22.546Z,24.04
2022-08-20T05:30:50.588Z,25.35
2022-08-20T05:33:20.019Z,25.85
2022-08-20T05:35:48.619Z,25.88
2022-08-20T05:38:18.207Z,25.90
2022-08-20T05:40:46.405Z,23.84
2022-08-20T05:43:15.862Z,25.34
2022-08-20T05:45:44.048Z,25.92
2022-08-20T05:48:13.024Z,25.91
2022-08-20T05:50:42.286Z,24.16
2022-08-20T05:53:10.459Z,25.28
2022-08-20T05:55:38.599Z,25.02
2022-08-20T05:58:07.916Z,25.79
2022-08-20T06:00:37.483Z,24.00
2022-08-20T06:03:23.023Z,23.28
2022-08-20T06:05:51.210Z,24.99
2022-08-20T06:08:19.237Z,24.53
2022-08-20T06:10:47.499Z,24.92
2022-08-20T06:13:15.520Z,23.35
2022-08-20T06:15:45.066Z,24.66
2022-08-20T06:18:27.493Z,24.89
2022-08-20T06:20:56.351Z,23.88
2022-08-20T06:23:25.367Z,25.42
2022-08-20T06:25:53.478Z,24.38
2022-08-20T06:28:21.441Z,25.51
2022-08-20T06:30:50.877Z,24.03
2022-08-20T06:33:18.771Z,23.36
2022-08-20T06:35:46.810Z,23.35
2022-08-20T06:38:14.849Z,23.85
2022-08-20T06:40:43.026Z,24.24
2022-08-20T06:43:12.174Z,24.92
2022-08-20T06:45:40.462Z,24.73
2022-08-20T06:48:11.247Z,24.88
2022-08-20T06:50:47.513Z,23.69
2022-08-20T06:53:19.061Z,24.82
2022-08-20T06:55:48.814Z,23.08
2022-08-20T06:58:36.919Z,24.80
2022-08-20T07:01:10.016Z,25.54
2022-08-20T07:03:42.331Z,24.94
2022-08-20T07:06:23.932Z,24.30
2022-08-20T07:08:52.023Z,24.13
2022-08-20T07:11:26.505Z,24.77
2022-08-20T07:13:56.610Z,24.39
2022-08-20T07:16:27.547Z,24.78
2022-08-20T07:18:58.357Z,24.22
2022-08-20T07:21:26.917Z,24.93
2022-08-20T07:23:55.167Z,25.51
2022-08-20T07:26:23.488Z,25.44
2022-08-20T07:28:51.838Z,24.95
2022-08-20T07:31:37.438Z,24.98
2022-08-20T07:34:06.840Z,24.13
2022-08-20T07:36:34.970Z,23.66
2022-08-20T07:39:05.992Z,24.46
2022-08-20T07:41:34.282Z,25.29
2022-08-20T07:44:02.471Z,24.89
2022-08-20T07:46:31.694Z,24.24
2022-08-20T07:49:00.126Z,25.53
2022-08-20T07:51:29.712Z,25.87
2022-08-20T07:54:00.238Z,24.40
2022-08-20T07:56:28.464Z,25.91
2022-08-20T07:58:59.201Z,25.90
2022-08-20T08:01:30.436Z,23.03
2022-08-20T08:03:59.171Z,25.87
2022-08-20T08:06:31.505Z,24.52
2022-08-20T08:09:03.157Z,24.00
2022-08-20T08:11:32.548Z,25.81
2022-08-20T08:14:00.772Z,25.78
2022-08-20T08:16:29.229Z,24.08
2022-08-20T08:18:58.589Z,24.58
2022-08-20T08:21:26.583Z,25.90
2022-08-20T08:23:56.266Z,24.67
2022-08-20T08:26:24.291Z,24.09
2022-08-20T08:28:54.529Z,24.64
2022-08-20T08:31:22.972Z,23.78
2022-08-20T08:33:51.413Z,25.42
2022-08-20T08:36:20.153Z,25.02
2022-08-20T08:38:48.580Z,26.00
2022-08-20T08:41:21.118Z,25.92
2022-08-20T08:43:49.945Z,27.10
2022-08-20T08:46:22.619Z,24.26
2022-08-20T08:48:53.457Z,26.39
2022-08-20T08:51:25.799Z,27.38
2022-08-20T08:53:54.814Z,26.38
2022-08-20T08:56:25.021Z,26.68
2022-08-20T08:58:54.414Z,27.02
2022-08-20T09:01:53.708Z,25.75
2022-08-20T09:04:11.702Z,26.39
2022-08-20T09:06:40.490Z,25.19
2022-08-20T09:09:17.253Z,26.33
2022-08-20T09:11:48.698Z,26.91
2022-08-20T09:14:16.641Z,25.53
2022-08-20T09:16:52.223Z,25.90
2022-08-20T09:19:21.167Z,26.36
2022-08-20T09:21:49.135Z,25.15
2022-08-20T09:24:17.207Z,26.69
2022-08-20T09:26:45.526Z,26.80
2022-08-20T09:29:15.128Z,26.93
2022-08-20T09:31:43.437Z,24.85
2022-08-20T09:34:13.320Z,26.18
2022-08-20T09:36:41.453Z,25.73
2022-08-20T09:39:10.463Z,26.11
2022-08-20T09:41:38.526Z,25.19
2022-08-20T09:44:09.777Z,26.24
2022-08-20T09:46:39.326Z,24.69
2022-08-20T09:49:08.927Z,25.56
2022-08-20T09:51:38.753Z,26.04
2022-08-20T09:54:07.389Z,24.87
2022-08-20T09:56:36.095Z,24.78
2022-08-20T09:59:04.174Z,24.85
2022-08-20T10:01:33.391Z,23.88
2022-08-20T10:04:02.764Z,25.36
2022-08-20T10:06:34.522Z,25.55
2022-08-20T10:09:05.380Z,26.46
2022-08-20T10:11:33.471Z,25.55
2022-08-20T10:14:01.478Z,25.59
2022-08-20T10:16:29.580Z,23.36
2022-08-20T10:18:58.016Z,24.57
2022-08-20T10:21:27.515Z,26.03
2022-08-20T10:23:55.559Z,25.96
2022-08-20T10:26:23.582Z,24.86
2022-08-20T10:28:53.525Z,26.10
2022-08-20T10:31:21.591Z,26.66
2022-08-20T10:33:49.858Z,27.54
2022-08-20T10:36:18.617Z,28.19
2022-08-20T10:38:49.172Z,28.71
2022-08-20T10:41:17.337Z,29.31
2022-08-20T10:43:45.386Z,29.07
2022-08-20T10:46:13.424Z,29.04
2022-08-20T10:48:41.428Z,27.64
2022-08-20T10:51:09.847Z,29.29
2022-08-20T10:53:38.265Z,28.89
2022-08-20T10:56:09.481Z,28.44
2022-08-20T10:58:39.957Z,27.99
2022-08-20T11:01:09.501Z,28.79
2022-08-20T11:03:37.659Z,28.01
2022-08-20T11:06:06.084Z,28.11
2022-08-20T11:08:34.896Z,29.16
2022-08-20T11:11:05.426Z,29.10
2022-08-20T11:13:35.346Z,28.56
2022-08-20T11:16:04.027Z,27.95
2022-08-20T11:18:36.986Z,28.11
2022-08-20T11:21:05.250Z,27.89
2022-08-20T11:23:36.823Z,29.00
2022-08-20T11:26:04.812Z,29.32
2022-08-20T11:28:34.265Z,30.83
2022-08-20T11:31:02.670Z,31.02
2022-08-20T11:33:30.721Z,31.74
2022-08-20T11:35:58.633Z,33.10
2022-08-20T11:38:27.036Z,33.33
2022-08-20T11:40:55.067Z,34.66
2022-08-20T11:45:59.201Z,35.93
2022-08-20T11:48:27.036Z,36.47
2022-08-20T11:50:55.005Z,36.67
2022-08-20T11:53:22.914Z,36.40
2022-08-20T11:55:50.863Z,36.03
2022-08-20T11:58:18.892Z,35.66
2022-08-20T12:00:46.719Z,35.37
2022-08-20T12:03:16.137Z,35.09
2022-08-20T12:05:45.099Z,34.65
2022-08-20T12:08:27.478Z,34.57
2022-08-20T12:10:56.748Z,34.43
2022-08-20T12:13:30.540Z,34.16
2022-08-20T12:16:12.762Z,33.77
2022-08-20T12:18:41.986Z,33.37
2022-08-20T12:21:09.945Z,33.05
2022-08-20T12:23:37.865Z,32.81
2022-08-20T12:26:05.782Z,31.93
2022-08-20T12:28:33.713Z,32.31
2022-08-20T12:31:01.641Z,32.17
2022-08-20T12:33:29.591Z,32.07
2022-08-20T12:35:59.495Z,32.00
2022-08-20T12:38:27.482Z,31.93
2022-08-20T12:40:55.347Z,31.84
2022-08-20T12:43:25.182Z,31.88
2022-08-20T12:45:53.253Z,31.97
2022-08-20T12:48:21.221Z,32.06
2022-08-20T12:50:50.127Z,32.18
2022-08-20T12:53:19.804Z,32.08
2022-08-20T12:55:47.603Z,32.03
2022-08-20T12:58:15.442Z,32.04
2022-08-20T13:00:46.471Z,32.10
2022-08-20T13:03:18.930Z,32.04
2022-08-20T13:05:46.885Z,32.03
2022-08-20T13:08:14.826Z,31.98
2022-08-20T13:10:45.718Z,31.81
2022-08-20T13:13:14.090Z,31.88
2022-08-20T13:15:41.958Z,31.90
2022-08-20T13:18:09.921Z,31.94
2022-08-20T13:20:37.939Z,31.93
2022-08-20T13:23:15.288Z,31.91
2022-08-20T13:25:44.524Z,31.65
2022-08-20T13:28:12.449Z,31.84
2022-08-20T13:30:41.405Z,31.99
2022-08-20T13:33:09.280Z,31.94
2022-08-20T13:35:37.285Z,31.94
2022-08-20T13:38:05.134Z,31.94
2022-08-20T13:40:33.130Z,31.98
2022-08-20T13:43:06.773Z,31.99
2022-08-20T13:45:35.963Z,31.89
2022-08-20T13:48:04.268Z,31.81
2022-08-20T13:50:34.717Z,31.73
2022-08-20T13:53:02.665Z,31.67
2022-08-20T13:55:30.696Z,31.67
2022-08-20T13:57:58.875Z,31.66
2022-08-20T14:00:31.718Z,31.75
2022-08-20T14:03:00.250Z,31.81
2022-08-20T14:05:28.174Z,31.80
2022-08-20T14:07:56.019Z,31.73
2022-08-20T14:10:26.898Z,31.68
2022-08-20T14:12:54.785Z,31.76
2022-08-20T14:15:22.635Z,31.90
2022-08-20T14:17:53.453Z,31.99
2022-08-20T14:20:22.745Z,31.95
2022-08-20T14:22:50.707Z,31.91
2022-08-20T14:25:19.640Z,31.84
2022-08-20T14:27:47.519Z,31.72
2022-08-20T14:30:17.430Z,31.67
2022-08-20T14:32:45.282Z,31.56
2022-08-20T14:35:14.590Z,30.99
2022-08-20T14:37:43.362Z,31.41
2022-08-20T14:40:12.783Z,31.36
2022-08-20T14:42:40.692Z,31.35
2022-08-20T14:45:12.201Z,31.14
2022-08-20T14:47:41.380Z,30.92
2022-08-20T14:50:11.453Z,31.23
2022-08-20T14:52:41.349Z,31.17
2022-08-20T14:55:10.773Z,31.09
2022-08-20T14:57:39.291Z,30.96
2022-08-20T15:00:09.452Z,30.85
2022-08-20T15:02:38.286Z,30.76
2022-08-20T15:05:18.508Z,30.80
2022-08-20T15:07:49.001Z,30.78
2022-08-20T15:10:22.237Z,30.79
2022-08-20T15:12:51.356Z,30.76
2022-08-20T15:15:19.344Z,30.76
2022-08-20T15:17:48.794Z,30.84
2022-08-20T15:20:20.359Z,30.69
2022-08-20T15:22:50.584Z,30.85
2022-08-20T15:25:19.533Z,30.85
2022-08-20T15:27:47.735Z,30.62
2022-08-20T15:30:19.253Z,30.75
2022-08-20T15:32:55.497Z,30.88
2022-08-20T15:35:23.846Z,30.96
2022-08-20T15:37:54.646Z,31.01
2022-08-20T15:40:27.843Z,30.79
2022-08-20T15:42:56.568Z,31.09
2022-08-20T15:45:36.862Z,31.08
2022-08-20T15:48:13.432Z,30.86
2022-08-20T15:51:00.540Z,31.23
2022-08-20T15:53:32.359Z,31.15
2022-08-20T15:56:09.857Z,31.03
2022-08-20T15:58:43.324Z,31.00
2022-08-20T16:01:25.281Z,30.82
2022-08-20T16:04:29.625Z,30.75
2022-08-20T16:06:59.864Z,30.69
2022-08-20T16:09:39.898Z,30.65
2022-08-20T16:12:10.210Z,30.33
2022-08-20T16:14:39.155Z,30.48
2022-08-20T16:17:07.959Z,30.44
2022-08-20T16:19:49.397Z,30.37
2022-08-20T16:22:17.489Z,30.21
2022-08-20T16:24:46.811Z,30.16
2022-08-20T16:27:17.391Z,30.15
2022-08-20T16:29:49.302Z,30.13
2022-08-20T16:32:21.664Z,30.09
2022-08-20T16:34:51.808Z,29.93
2022-08-20T16:37:23.766Z,29.98
2022-08-20T16:39:55.582Z,30.27
2022-08-20T16:42:24.938Z,30.25
2022-08-20T16:44:55.161Z,30.20
2022-08-20T16:47:26.354Z,30.17
2022-08-20T16:49:56.526Z,30.14
2022-08-20T16:52:24.487Z,30.07
2022-08-20T16:54:53.776Z,29.98
2022-08-20T16:57:21.805Z,29.90
2022-08-20T16:59:59.834Z,29.77
2022-08-20T17:02:27.687Z,29.73
2022-08-20T17:04:59.384Z,29.44
2022-08-20T17:07:33.451Z,29.38
2022-08-20T17:10:12.646Z,29.53
2022-08-20T17:12:40.624Z,29.47
2022-08-20T17:15:09.236Z,29.37
2022-08-20T17:17:37.764Z,29.33
2022-08-20T17:20:07.286Z,29.26
2022-08-20T17:22:42.989Z,29.19
2022-08-20T17:25:17.148Z,29.14
2022-08-20T17:27:45.421Z,29.05
2022-08-20T17:30:20.415Z,28.98
2022-08-20T17:32:58.073Z,28.86
2022-08-20T17:35:32.379Z,28.49
2022-08-20T17:38:03.813Z,28.72
2022-08-20T17:40:39.935Z,28.69
2022-08-20T17:43:08.796Z,28.62
2022-08-20T17:45:38.895Z,28.60
2022-08-20T17:48:09.614Z,28.54
2022-08-20T17:50:39.530Z,28.48
2022-08-20T17:53:17.836Z,28.19
2022-08-20T17:55:50.958Z,28.28
2022-08-20T17:58:19.171Z,28.33
2022-08-20T18:00:47.054Z,28.28
2022-08-20T18:03:21.508Z,28.23
2022-08-20T18:05:51.945Z,28.17
2022-08-20T18:08:39.086Z,28.14
2022-08-20T18:11:14.442Z,28.04
2022-08-20T18:14:06.466Z,27.89
2022-08-20T18:16:39.433Z,27.90
2022-08-20T18:19:12.453Z,27.83
2022-08-20T18:22:04.842Z,27.80
2022-08-20T18:24:37.874Z,27.49
2022-08-20T18:27:09.264Z,27.60
2022-08-20T18:29:38.266Z,27.53
2022-08-20T18:32:07.167Z,27.48
2022-08-20T18:34:38.517Z,27.40
2022-08-20T18:37:07.267Z,27.34
2022-08-20T18:39:36.098Z,27.24
2022-08-20T18:42:05.342Z,27.07
2022-08-20T18:44:41.707Z,27.06
2022-08-20T18:47:21.111Z,26.90
2022-08-20T18:49:59.029Z,26.95
2022-08-20T18:52:28.441Z,26.87
2022-08-20T18:54:58.056Z,26.82
2022-08-20T18:57:40.748Z,26.75
2022-08-20T19:00:14.247Z,26.66
2022-08-20T19:02:58.191Z,26.66
2022-08-20T19:05:28.266Z,26.55
2022-08-20T19:07:56.210Z,26.44
2022-08-20T19:10:44.742Z,26.50
2022-08-20T19:13:29.206Z,26.33
2022-08-20T19:16:00.892Z,26.33
2022-08-20T19:18:31.977Z,26.26
2022-08-20T19:21:00.944Z,25.87
2022-08-20T19:23:29.970Z,26.09
2022-08-20T19:25:59.790Z,25.95
2022-08-20T19:28:31.396Z,25.90
2022-08-20T19:31:10.856Z,25.83
2022-08-20T19:33:44.284Z,25.73
2022-08-20T19:36:13.164Z,25.65
2022-08-20T19:38:45.891Z,25.52
2022-08-20T19:41:28.837Z,25.36
2022-08-20T19:43:59.737Z,25.41
2022-08-20T19:46:31.383Z,25.34
2022-08-20T19:49:19.264Z,25.30
2022-08-20T19:51:52.761Z,25.07
2022-08-20T19:54:21.490Z,25.13
2022-08-20T19:56:49.580Z,25.02
2022-08-20T19:59:19.131Z,25.00
2022-08-20T20:01:58.763Z,24.95
2022-08-20T20:04:29.738Z,23.63
2022-08-20T20:06:58.454Z,22.05
2022-08-20T20:09:27.696Z,24.78
2022-08-20T20:11:59.405Z,24.25
2022-08-20T20:14:32.595Z,24.58
2022-08-20T20:17:02.307Z,22.96
2022-08-20T20:19:30.322Z,22.97
2022-08-20T20:22:19.508Z,24.50
2022-08-20T20:24:49.982Z,24.44
2022-08-20T20:27:22.096Z,23.51
2022-08-20T20:29:52.017Z,23.80
2022-08-20T20:32:23.263Z,22.43
2022-08-20T20:34:56.268Z,23.70
2022-08-20T20:37:37.938Z,22.92
2022-08-20T20:40:24.011Z,22.60
2022-08-20T20:42:59.750Z,22.36
2022-08-20T20:45:33.943Z,21.95
2022-08-20T20:48:11.746Z,21.48
2022-08-20T20:50:40.282Z,22.42
2022-08-20T20:53:08.901Z,22.54
2022-08-20T20:55:37.799Z,23.41
2022-08-20T20:58:05.931Z,22.34
2022-08-20T21:00:34.549Z,23.18
2022-08-20T21:03:04.303Z,23.78
2022-08-20T21:05:32.952Z,22.02
2022-08-20T21:08:02.638Z,23.71
2022-08-20T21:10:33.041Z,23.09
2022-08-20T21:13:05.849Z,21.89
2022-08-20T21:15:34.255Z,22.13
2022-08-20T21:18:04.845Z,23.51
2022-08-20T21:20:33.206Z,21.74
2022-08-20T21:23:01.653Z,22.42
2022-08-20T21:25:30.512Z,21.75
2022-08-20T21:27:58.855Z,21.68
2022-08-20T21:30:29.666Z,22.13
2022-08-20T21:32:57.969Z,23.25
2022-08-20T21:35:28.008Z,22.85
2022-08-20T21:37:56.442Z,22.73
2022-08-20T21:40:28.236Z,22.68
2022-08-20T21:42:57.038Z,21.39
2022-08-20T21:45:28.277Z,23.13
2022-08-20T21:47:57.356Z,21.22
2022-08-20T21:50:27.491Z,20.84
2022-08-20T21:52:59.787Z,22.40
2022-08-20T21:55:29.733Z,22.10
2022-08-20T21:58:55.092Z,23.07
2022-08-20T22:01:23.744Z,23.00
2022-08-20T22:03:52.111Z,21.40
2022-08-20T22:06:21.956Z,22.38
2022-08-20T22:08:50.127Z,21.75
2022-08-20T22:11:18.890Z,21.98
2022-08-20T22:13:47.590Z,21.17
2022-08-20T22:16:17.121Z,22.12
2022-08-20T22:18:45.602Z,21.20
2022-08-20T22:21:16.430Z,21.71
2022-08-20T22:23:46.225Z,21.55
2022-08-20T22:26:14.779Z,22.81
2022-08-20T22:28:43.245Z,22.78
2022-08-20T22:31:11.571Z,21.12
2022-08-20T22:33:40.108Z,22.78
2022-08-20T22:36:08.731Z,21.07
2022-08-20T22:38:37.106Z,22.74
2022-08-20T22:41:09.688Z,22.14
2022-08-20T22:43:46.289Z,21.93
2022-08-20T22:46:26.866Z,22.67
2022-08-20T22:48:55.266Z,20.42
2022-08-20T22:51:25.572Z,21.01
2022-08-20T22:53:54.125Z,20.77
2022-08-20T22:56:25.141Z,20.92
2022-08-20T22:58:54.653Z,20.99
2022-08-20T23:01:30.643Z,21.88
2022-08-20T23:04:01.072Z,21.40
2022-08-20T23:06:30.233Z,21.83
2022-08-20T23:09:12.875Z,22.57
2022-08-20T23:11:46.655Z,22.48
2022-08-20T23:14:17.490Z,21.84
2022-08-20T23:16:47.502Z,21.13
2022-08-20T23:19:18.896Z,22.45
2022-08-20T23:21:47.421Z,21.92
2022-08-20T23:24:15.839Z,22.13
2022-08-20T23:26:52.752Z,20.47
2022-08-20T23:29:25.750Z,22.28
2022-08-20T23:31:55.035Z,20.59
2022-08-20T23:34:23.882Z,19.78
2022-08-20T23:36:52.861Z,22.23
2022-08-20T23:39:22.011Z,21.22
2022-08-20T23:41:55.306Z,21.32
2022-08-20T23:44:26.656Z,21.50
2022-08-20T23:46:57.088Z,20.03
2022-08-20T23:49:28.227Z,21.57
2022-08-20T23:51:57.936Z,22.06
2022-08-20T23:54:35.016Z,20.32
2022-08-20T23:57:08.084Z,21.96
2022-08-20T23:59:38.124Z,21.00
